Darfield, New Zealand
Current Conditions -  °F | °C
As of 9:30 PM on Saturday 01 Nov 2014 (Local Time) from NZCH Reporting Station
Clear Clear  
Wind Chill: 68°   Ceiling: Unl
Heat Index: 68°   Visibility: 6mi
Dew Point: 45°   Wind: 15mph
Humidity: 43%   Direction: 300°WNW
Pressure: 29.74"   Gusts: NA
Location:  43.49°S, 172.12°E
Report Text: NZCH 010930Z AUTO 30013KT 9999 NCD 20/07 Q1007 NOSIG
Loading
Personal Weather Stations






























Interactive Weather Map
Tropical Storm Tracking
New forecast layout! Learn more

10-Day Weather Forecast

Advertisements
Track Severe Weather on mobile